Main page
METAR-TAF:

METAR-TAF

Airports :

Batman Airport

Batman, Turkey

latitude: 37-52N, longitude: 041-10E, elevation: 540 m

Current weather observation

The report was made 36 minutes ago, at 19:50 UTC
Wind 5 kt from the Northeast
Temperature 24°C
Humidity 44%
Pressure 1010 hPa
Visibility 10 km or more
no clouds below 1500 m and no cumulonimbus

METAR: LTCJ 191950Z 04005KT CAVOK 24/11 Q1010 NOSIG RMK RWY20 01004KT SKC

Time: 23:26 (20:26 UTC)

Forecast

The report was made 3 hours and 46 minutes ago, at 16:40 UTC
Forecast valid from 19 at 18 UTC to 20 at 18 UTC
Wind 2 kt from variable directions
Visibility 10 km or more
no clouds below 1500 m and no cumulonimbus

TAF: LTCJ 191640Z 1918/2018 VRB02KT CAVOK

Weather observations and forecasts of more than 4000 airports (METAR and TAF reports).

The available stations are represented by yellow and red dots on the map.

Hover mouse over dot to see the name of the station.

Then click to see weather observations and forecasts.

To change the map : click on the green buttons with a black cross to zoom in, on the green button with a dash to zoom out, or on the green arrows for adjacent maps.


METAR-TAF: